createdAt,value
2018-06-30T00:02:11.468Z,4.70
2018-06-30T00:04:45.317Z,4.57
2018-06-30T00:07:13.828Z,4.27
2018-06-30T00:09:41.997Z,4.33
2018-06-30T00:12:10.500Z,4.33
2018-06-30T00:14:39.013Z,4.40
2018-06-30T00:17:07.558Z,4.20
2018-06-30T00:19:36.070Z,4.17
2018-06-30T00:22:04.631Z,4.30
2018-06-30T00:24:33.157Z,4.17
2018-06-30T00:27:07.049Z,4.20
2018-06-30T00:29:35.219Z,4.40
2018-06-30T00:32:03.799Z,4.87
2018-06-30T00:34:31.983Z,4.17
2018-06-30T00:37:00.141Z,3.67
2018-06-30T00:39:28.652Z,4.20
2018-06-30T00:41:57.166Z,4.40
2018-06-30T00:44:25.643Z,4.30
2018-06-30T00:46:54.159Z,4.37
2018-06-30T00:49:22.925Z,4.87
2018-06-30T00:51:51.392Z,4.40
2018-06-30T00:54:19.927Z,4.40
2018-06-30T00:56:48.469Z,4.43
2018-06-30T00:59:17.001Z,4.13
2018-06-30T01:01:45.511Z,4.20
2018-06-30T01:04:14.012Z,4.30
2018-06-30T01:06:42.193Z,4.33
2018-06-30T01:09:10.356Z,4.03
2018-06-30T01:11:38.845Z,4.07
2018-06-30T01:14:07.384Z,3.83
2018-06-30T01:16:35.899Z,4.10
2018-06-30T01:19:04.398Z,3.70
2018-06-30T01:21:32.878Z,3.87
2018-06-30T01:24:01.406Z,4.40
2018-06-30T01:26:29.903Z,4.23
2018-06-30T01:28:58.407Z,4.27
2018-06-30T01:31:26.899Z,4.37
2018-06-30T01:33:55.379Z,4.57
2018-06-30T01:36:23.867Z,4.17
2018-06-30T01:38:52.367Z,4.37
2018-06-30T01:41:20.895Z,4.53
2018-06-30T01:43:49.386Z,4.30
2018-06-30T01:46:17.891Z,4.37
2018-06-30T01:48:46.381Z,4.40
2018-06-30T01:51:14.940Z,4.40
2018-06-30T01:53:43.459Z,4.23
2018-06-30T01:56:11.991Z,4.00
2018-06-30T01:58:40.537Z,4.10
2018-06-30T02:01:09.034Z,4.17
2018-06-30T02:03:37.549Z,4.70
2018-06-30T02:06:06.420Z,4.63
2018-06-30T02:08:34.924Z,4.43
2018-06-30T02:11:03.437Z,5.57
2018-06-30T02:13:31.600Z,4.93
2018-06-30T02:16:00.120Z,4.87
2018-06-30T02:18:28.630Z,4.20
2018-06-30T02:20:57.159Z,4.80
2018-06-30T02:23:25.664Z,4.17
2018-06-30T02:25:54.170Z,4.37
2018-06-30T02:28:22.645Z,3.80
2018-06-30T02:30:51.133Z,4.00
2018-06-30T02:33:19.652Z,4.00
2018-06-30T02:35:48.138Z,3.87
2018-06-30T02:38:16.625Z,3.93
2018-06-30T02:40:45.170Z,4.43
2018-06-30T02:43:13.727Z,3.97
2018-06-30T02:45:42.229Z,4.27
2018-06-30T02:48:10.376Z,3.60
2018-06-30T02:50:38.904Z,3.77
2018-06-30T02:53:07.405Z,3.83
2018-06-30T02:55:35.943Z,4.10
2018-06-30T02:58:04.529Z,4.40
2018-06-30T03:00:33.051Z,3.67
2018-06-30T03:03:01.539Z,3.87
2018-06-30T03:05:30.097Z,4.03
2018-06-30T03:07:58.613Z,3.90
2018-06-30T03:10:27.093Z,3.70
2018-06-30T03:12:55.263Z,3.80
2018-06-30T03:15:23.411Z,3.73
2018-06-30T03:17:51.947Z,3.63
2018-06-30T03:20:20.443Z,3.77
2018-06-30T03:22:48.935Z,3.40
2018-06-30T03:25:17.459Z,3.50
2018-06-30T03:27:45.965Z,3.60
2018-06-30T03:30:14.135Z,3.67
2018-06-30T03:32:43.497Z,4.23
2018-06-30T03:35:12.023Z,4.30
2018-06-30T03:37:40.531Z,4.60
2018-06-30T03:40:08.717Z,3.90
2018-06-30T03:42:37.286Z,3.90
2018-06-30T03:45:05.436Z,4.20
2018-06-30T03:47:33.938Z,4.07
2018-06-30T03:50:02.463Z,3.90
2018-06-30T03:52:30.970Z,3.90
2018-06-30T03:54:59.503Z,4.30
2018-06-30T03:57:28.062Z,4.60
2018-06-30T03:59:56.580Z,4.03
2018-06-30T04:02:25.084Z,4.07
2018-06-30T04:04:53.574Z,3.63
2018-06-30T04:07:22.152Z,4.17
2018-06-30T04:09:50.640Z,3.77
2018-06-30T04:12:18.794Z,4.90
2018-06-30T04:14:47.310Z,3.87
2018-06-30T04:17:15.473Z,4.43
2018-06-30T04:19:43.618Z,4.07
2018-06-30T04:22:12.189Z,4.63
2018-06-30T04:24:40.610Z,3.77
2018-06-30T04:27:09.106Z,3.80
2018-06-30T04:29:37.612Z,3.80
2018-06-30T04:32:06.172Z,4.00
2018-06-30T04:34:34.716Z,4.43
2018-06-30T04:37:03.262Z,3.93
2018-06-30T04:39:31.744Z,4.10
2018-06-30T04:41:59.917Z,3.87
2018-06-30T04:44:28.418Z,4.20
2018-06-30T04:46:56.926Z,4.13
2018-06-30T04:49:25.439Z,4.23
2018-06-30T04:51:53.943Z,4.07
2018-06-30T04:54:22.439Z,3.83
2018-06-30T04:56:50.965Z,4.20
2018-06-30T04:59:19.467Z,3.63
2018-06-30T05:01:47.951Z,4.33
2018-06-30T05:04:16.455Z,4.47
2018-06-30T05:06:44.964Z,4.00
2018-06-30T05:09:13.449Z,4.23
2018-06-30T05:11:41.955Z,4.43
2018-06-30T05:14:10.153Z,3.97
2018-06-30T05:16:38.695Z,4.03
2018-06-30T05:19:07.201Z,4.00
2018-06-30T05:21:35.335Z,4.30
2018-06-30T05:24:03.910Z,4.00
2018-06-30T05:26:32.453Z,3.97
2018-06-30T05:29:00.984Z,3.90
2018-06-30T05:31:29.512Z,3.90
2018-06-30T05:33:58.028Z,3.97
2018-06-30T05:36:26.587Z,3.60
2018-06-30T05:38:55.139Z,3.93
2018-06-30T05:41:23.633Z,4.00
2018-06-30T05:43:52.212Z,3.80
2018-06-30T05:46:20.776Z,4.57
2018-06-30T05:48:49.326Z,4.80
2018-06-30T05:51:17.865Z,4.00
2018-06-30T05:53:46.380Z,3.97
2018-06-30T05:56:14.902Z,4.07
2018-06-30T05:58:43.109Z,3.77
2018-06-30T06:01:11.675Z,3.40
2018-06-30T06:03:39.879Z,3.67
2018-06-30T06:06:08.401Z,3.50
2018-06-30T06:08:36.898Z,3.33
2018-06-30T06:11:05.455Z,3.40
2018-06-30T06:13:33.964Z,3.70
2018-06-30T06:16:02.460Z,4.10
2018-06-30T06:18:30.965Z,4.23
2018-06-30T06:20:59.154Z,3.43
2018-06-30T06:23:27.654Z,4.00
2018-06-30T06:25:56.214Z,3.90
2018-06-30T06:28:24.686Z,3.47
2018-06-30T06:30:53.223Z,4.13
2018-06-30T06:33:21.764Z,3.57
2018-06-30T06:35:50.239Z,3.73
2018-06-30T06:38:18.727Z,3.40
2018-06-30T06:40:47.283Z,2.90
2018-06-30T06:43:15.812Z,3.30
2018-06-30T06:45:44.305Z,3.37
2018-06-30T06:48:12.490Z,3.20
2018-06-30T06:50:41.018Z,3.20
2018-06-30T06:53:09.515Z,3.30
2018-06-30T06:55:38.064Z,3.33
2018-06-30T06:58:06.643Z,3.60
2018-06-30T07:00:35.201Z,3.20
2018-06-30T07:03:03.767Z,3.57
2018-06-30T07:05:32.264Z,3.40
2018-06-30T07:08:01.034Z,3.30
2018-06-30T07:10:29.562Z,3.20
2018-06-30T07:12:58.062Z,3.30
2018-06-30T07:15:26.588Z,3.07
2018-06-30T07:17:55.100Z,3.10
2018-06-30T07:20:23.652Z,3.33
2018-06-30T07:22:52.175Z,3.57
2018-06-30T07:25:20.702Z,3.67
2018-06-30T07:27:49.379Z,3.20
2018-06-30T07:30:17.587Z,2.87
2018-06-30T07:32:46.063Z,3.70
2018-06-30T07:35:14.587Z,3.00
2018-06-30T07:37:43.167Z,3.27
2018-06-30T07:40:11.665Z,3.30
2018-06-30T07:42:40.160Z,3.30
2018-06-30T07:45:08.691Z,3.33
2018-06-30T07:47:37.220Z,3.43
2018-06-30T07:50:05.839Z,3.37
2018-06-30T07:52:34.327Z,3.30
2018-06-30T07:55:02.855Z,3.13
2018-06-30T07:57:31.364Z,3.27
2018-06-30T07:59:59.962Z,3.30
2018-06-30T08:02:28.415Z,3.40
2018-06-30T08:04:56.900Z,3.07
2018-06-30T08:07:25.465Z,3.37
2018-06-30T08:09:54.377Z,3.47
2018-06-30T08:12:22.895Z,2.93
2018-06-30T08:14:51.461Z,3.30
2018-06-30T08:17:19.950Z,3.47
2018-06-30T08:19:48.473Z,3.43
2018-06-30T08:22:17.065Z,3.37
2018-06-30T08:24:45.571Z,3.37
2018-06-30T08:27:13.747Z,3.07
2018-06-30T08:29:41.959Z,3.40
2018-06-30T08:32:10.490Z,3.53
2018-06-30T08:34:38.958Z,3.30
2018-06-30T08:37:07.475Z,3.40
2018-06-30T08:39:35.972Z,3.33
2018-06-30T08:42:04.533Z,3.00
2018-06-30T08:44:33.070Z,3.20
2018-06-30T08:47:01.552Z,3.30
2018-06-30T08:49:30.040Z,3.30
2018-06-30T08:51:58.540Z,3.50
2018-06-30T08:54:27.061Z,3.10
2018-06-30T08:56:55.567Z,3.20
2018-06-30T08:59:24.076Z,3.47
2018-06-30T09:01:52.586Z,3.40
2018-06-30T09:04:21.100Z,3.63
2018-06-30T09:06:49.593Z,3.53
2018-06-30T09:09:18.072Z,3.43
2018-06-30T09:11:46.599Z,3.27
2018-06-30T09:14:14.772Z,3.73
2018-06-30T09:16:42.940Z,3.57
2018-06-30T09:19:11.423Z,3.40
2018-06-30T09:21:46.575Z,3.70
2018-06-30T09:24:15.155Z,3.30
2018-06-30T09:26:43.617Z,3.37
2018-06-30T09:29:12.140Z,3.63
2018-06-30T09:31:40.323Z,3.60
2018-06-30T09:34:09.136Z,3.80
2018-06-30T09:36:37.636Z,3.50
2018-06-30T09:39:08.563Z,3.30
2018-06-30T09:41:37.105Z,3.87
2018-06-30T09:44:05.930Z,3.60
2018-06-30T09:46:34.645Z,3.40
2018-06-30T09:49:03.177Z,3.73
2018-06-30T09:51:31.709Z,3.50
2018-06-30T09:54:00.271Z,3.70
2018-06-30T09:56:28.472Z,3.47
2018-06-30T09:58:57.005Z,3.70
2018-06-30T10:01:25.515Z,3.60
2018-06-30T10:03:53.747Z,3.50
2018-06-30T10:06:22.253Z,3.70
2018-06-30T10:08:50.753Z,3.87
2018-06-30T10:11:19.245Z,3.30
2018-06-30T10:13:47.433Z,3.70
2018-06-30T10:16:15.613Z,3.50
2018-06-30T10:18:44.119Z,3.57
2018-06-30T10:21:12.712Z,3.80
2018-06-30T10:23:41.215Z,3.60
2018-06-30T10:26:09.708Z,3.60
2018-06-30T10:28:38.183Z,4.00
2018-06-30T10:31:06.722Z,3.67
2018-06-30T10:33:35.251Z,3.50
2018-06-30T10:36:03.792Z,3.63
2018-06-30T10:38:31.964Z,3.83
2018-06-30T10:41:00.485Z,3.63
2018-06-30T10:43:28.975Z,3.70
2018-06-30T10:45:57.526Z,3.50
2018-06-30T10:48:26.032Z,4.73
2018-06-30T10:50:54.550Z,4.03
2018-06-30T10:53:23.069Z,4.07
2018-06-30T10:55:51.589Z,3.70
2018-06-30T10:58:20.094Z,3.73
2018-06-30T11:00:48.635Z,3.70
2018-06-30T11:03:17.183Z,3.77
2018-06-30T11:05:45.747Z,3.80
2018-06-30T11:08:14.272Z,3.83
2018-06-30T11:10:42.759Z,3.87
2018-06-30T11:13:11.311Z,3.90
2018-06-30T11:15:39.808Z,3.60
2018-06-30T11:18:08.809Z,3.77
2018-06-30T11:20:37.389Z,3.50
2018-06-30T11:23:06.022Z,3.62
2018-06-30T11:25:34.558Z,3.77
2018-06-30T11:28:03.131Z,4.25
2018-06-30T11:30:31.673Z,3.77
2018-06-30T11:33:00.239Z,3.62
2018-06-30T11:35:28.714Z,3.70
2018-06-30T11:37:57.267Z,3.95
2018-06-30T11:40:25.885Z,3.98
2018-06-30T11:42:54.331Z,3.92
2018-06-30T11:45:22.934Z,3.77
2018-06-30T11:47:51.471Z,4.00
2018-06-30T11:50:20.048Z,4.28
2018-06-30T11:52:48.565Z,3.90
2018-06-30T11:55:17.069Z,3.90
2018-06-30T11:57:45.613Z,4.10
2018-06-30T12:00:20.647Z,4.08
2018-06-30T12:02:49.164Z,4.67
2018-06-30T12:05:17.677Z,4.35
2018-06-30T12:07:46.221Z,4.60
2018-06-30T12:10:14.744Z,4.35
2018-06-30T12:12:43.241Z,4.40
2018-06-30T12:15:11.799Z,4.33
2018-06-30T12:17:40.311Z,4.03
2018-06-30T12:20:08.517Z,4.12
2018-06-30T12:22:37.036Z,4.72
2018-06-30T12:25:05.583Z,4.58
2018-06-30T12:27:34.127Z,4.33
2018-06-30T12:30:02.686Z,4.20
2018-06-30T12:32:31.268Z,4.65
2018-06-30T12:34:59.763Z,4.12
2018-06-30T12:37:28.352Z,3.90
2018-06-30T12:39:56.870Z,4.08
2018-06-30T12:42:25.057Z,3.80
2018-06-30T12:44:53.553Z,3.83
2018-06-30T12:47:22.115Z,4.22
2018-06-30T12:49:50.639Z,3.92
2018-06-30T12:52:19.213Z,3.77
2018-06-30T12:54:47.882Z,4.15
2018-06-30T12:57:16.423Z,3.92
2018-06-30T12:59:44.924Z,4.00
2018-06-30T13:02:14.395Z,3.98
2018-06-30T13:04:42.911Z,3.90
2018-06-30T13:07:11.403Z,3.95
2018-06-30T13:09:39.969Z,4.30
2018-06-30T13:12:08.519Z,3.60
2018-06-30T13:14:36.717Z,4.10
2018-06-30T13:17:05.526Z,3.98
2018-06-30T13:19:34.026Z,3.58
2018-06-30T13:22:02.617Z,3.98
2018-06-30T13:24:31.143Z,3.98
2018-06-30T13:26:59.653Z,3.77
2018-06-30T13:29:28.172Z,3.70
2018-06-30T13:31:56.683Z,3.98
2018-06-30T13:34:25.208Z,3.77
2018-06-30T13:36:53.724Z,3.70
2018-06-30T13:39:22.234Z,3.47
2018-06-30T13:41:50.820Z,3.35
2018-06-30T13:44:19.321Z,4.08
2018-06-30T13:46:47.914Z,4.22
2018-06-30T13:49:16.448Z,3.80
2018-06-30T13:51:44.991Z,3.87
2018-06-30T13:54:13.509Z,3.85
2018-06-30T13:56:42.028Z,3.27
2018-06-30T13:59:10.573Z,3.60
2018-06-30T14:01:38.711Z,3.47
2018-06-30T14:04:07.242Z,3.27
2018-06-30T14:06:35.807Z,3.67
2018-06-30T14:09:07.920Z,3.83
2018-06-30T14:11:36.506Z,3.60
2018-06-30T14:14:05.448Z,3.83
2018-06-30T14:16:34.037Z,3.70
2018-06-30T14:19:02.623Z,3.72
2018-06-30T14:21:31.168Z,3.50
2018-06-30T14:23:59.685Z,3.40
2018-06-30T14:26:28.499Z,3.50
2018-06-30T14:28:57.423Z,3.75
2018-06-30T14:31:25.906Z,3.58
2018-06-30T14:33:54.704Z,3.85
2018-06-30T14:36:23.241Z,3.42
2018-06-30T14:38:51.735Z,3.62
2018-06-30T14:41:20.249Z,3.20
2018-06-30T14:43:48.810Z,3.20
2018-06-30T14:46:17.337Z,3.22
2018-06-30T14:48:45.857Z,3.00
2018-06-30T14:51:14.356Z,3.12
2018-06-30T14:53:42.849Z,2.75
2018-06-30T14:56:11.387Z,3.15
2018-06-30T14:58:39.930Z,2.90
2018-06-30T15:01:08.509Z,3.00
2018-06-30T15:03:37.147Z,3.30
2018-06-30T15:06:05.779Z,2.80
2018-06-30T15:08:34.307Z,2.80
2018-06-30T15:11:02.906Z,2.70
2018-06-30T15:13:31.407Z,2.40
2018-06-30T15:15:59.945Z,2.42
2018-06-30T15:18:28.505Z,2.55
2018-06-30T15:20:57.029Z,2.40
2018-06-30T15:23:25.631Z,3.00
2018-06-30T15:25:54.336Z,2.92
2018-06-30T15:28:22.894Z,3.02
2018-06-30T15:30:51.436Z,3.27
2018-06-30T15:33:19.972Z,3.02
2018-06-30T15:35:48.531Z,2.80
2018-06-30T15:38:17.048Z,2.62
2018-06-30T15:40:45.632Z,2.80
2018-06-30T15:43:14.172Z,2.83
2018-06-30T15:45:42.706Z,3.00
2018-06-30T15:48:11.368Z,2.80
2018-06-30T15:50:39.878Z,2.80
2018-06-30T15:53:08.406Z,2.75
2018-06-30T15:55:36.902Z,2.72
2018-06-30T15:58:05.764Z,2.40
2018-06-30T16:00:34.322Z,2.70
2018-06-30T16:03:02.817Z,2.67
2018-06-30T16:05:31.378Z,3.02
2018-06-30T16:07:59.937Z,3.00
2018-06-30T16:10:28.492Z,3.50
2018-06-30T16:12:57.067Z,3.77
2018-06-30T16:15:25.247Z,3.12
2018-06-30T16:17:53.804Z,3.40
2018-06-30T16:20:22.363Z,3.47
2018-06-30T16:22:50.895Z,3.50
2018-06-30T16:25:19.397Z,3.20
2018-06-30T16:27:47.545Z,3.42
2018-06-30T16:30:16.052Z,3.55
2018-06-30T16:32:44.651Z,3.42
2018-06-30T16:35:13.212Z,3.72
2018-06-30T16:37:41.767Z,3.80
2018-06-30T16:40:10.291Z,4.10
2018-06-30T16:42:38.805Z,4.15
2018-06-30T16:45:07.337Z,4.08
2018-06-30T16:47:35.887Z,4.12
2018-06-30T16:50:04.811Z,4.15
2018-06-30T16:52:33.373Z,4.05
2018-06-30T16:55:01.912Z,3.77
2018-06-30T16:57:30.429Z,4.58
2018-06-30T16:59:58.598Z,4.22
2018-06-30T17:02:27.139Z,3.27
2018-06-30T17:04:55.647Z,3.95
2018-06-30T17:07:24.144Z,4.17
2018-06-30T17:09:52.687Z,3.85
2018-06-30T17:12:21.187Z,3.98
2018-06-30T17:14:49.699Z,4.05
2018-06-30T17:17:18.227Z,3.53
2018-06-30T17:19:46.739Z,3.97
2018-06-30T17:22:15.344Z,3.90
2018-06-30T17:24:43.885Z,3.97
2018-06-30T17:27:12.367Z,3.93
2018-06-30T17:29:40.926Z,3.90
2018-06-30T17:32:09.448Z,3.87
2018-06-30T17:34:37.980Z,3.80
2018-06-30T17:37:06.540Z,3.60
2018-06-30T17:39:35.021Z,3.53
2018-06-30T17:42:03.582Z,3.97
2018-06-30T17:44:31.736Z,3.90
2018-06-30T17:47:00.250Z,4.20
2018-06-30T17:49:28.423Z,4.40
2018-06-30T17:51:56.591Z,4.20
2018-06-30T17:54:25.087Z,4.30
2018-06-30T17:56:53.619Z,3.87
2018-06-30T17:59:22.153Z,4.00
2018-06-30T18:01:50.693Z,3.93
2018-06-30T18:04:19.222Z,4.00
2018-06-30T18:06:47.729Z,4.07
2018-06-30T18:09:16.252Z,4.17
2018-06-30T18:11:44.853Z,4.60
2018-06-30T18:14:13.405Z,4.40
2018-06-30T18:16:41.845Z,4.23
2018-06-30T18:19:10.376Z,3.90
2018-06-30T18:21:38.888Z,4.30
2018-06-30T18:24:07.431Z,4.30
2018-06-30T18:26:35.630Z,3.97
2018-06-30T18:29:04.426Z,4.07
2018-06-30T18:31:32.931Z,3.87
2018-06-30T18:34:01.425Z,4.30
2018-06-30T18:36:29.969Z,4.30
2018-06-30T18:38:58.462Z,4.50
2018-06-30T18:41:26.963Z,4.60
2018-06-30T18:43:55.527Z,3.90
2018-06-30T18:46:24.017Z,4.40
2018-06-30T18:48:52.529Z,4.40
2018-06-30T18:51:21.137Z,4.47
2018-06-30T18:53:49.703Z,5.20
2018-06-30T18:56:18.236Z,4.63
2018-06-30T18:58:46.419Z,4.33
2018-06-30T19:01:14.974Z,4.20
2018-06-30T19:03:43.484Z,4.80
2018-06-30T19:06:12.076Z,4.20
2018-06-30T19:08:40.572Z,4.10
2018-06-30T19:11:08.744Z,4.30
2018-06-30T19:13:37.256Z,4.77
2018-06-30T19:16:05.797Z,4.83
2018-06-30T19:18:34.278Z,5.67
2018-06-30T19:21:02.797Z,4.93
2018-06-30T19:23:31.340Z,5.00
2018-06-30T19:25:59.871Z,4.00
2018-06-30T19:28:28.025Z,4.60
2018-06-30T19:30:56.541Z,4.63
2018-06-30T19:33:24.694Z,4.40
2018-06-30T19:35:53.182Z,4.50
2018-06-30T19:38:21.686Z,4.20
2018-06-30T19:40:50.202Z,4.70
2018-06-30T19:43:18.742Z,4.53
2018-06-30T19:45:47.279Z,4.40
2018-06-30T19:48:15.780Z,4.63
2018-06-30T19:50:44.361Z,4.90
2018-06-30T19:53:12.956Z,4.53
2018-06-30T19:55:41.486Z,5.57
2018-06-30T19:58:09.997Z,5.77
2018-06-30T20:00:38.549Z,5.67
2018-06-30T20:03:07.072Z,5.30
2018-06-30T20:05:35.631Z,5.43
2018-06-30T20:08:04.158Z,4.80
2018-06-30T20:10:32.681Z,5.07
2018-06-30T20:13:01.260Z,5.30
2018-06-30T20:15:29.789Z,5.00
2018-06-30T20:17:57.976Z,4.60
2018-06-30T20:20:26.501Z,4.43
2018-06-30T20:22:55.004Z,4.63
2018-06-30T20:25:23.542Z,4.40
2018-06-30T20:27:52.150Z,4.10
2018-06-30T20:30:20.717Z,4.63
2018-06-30T20:32:49.249Z,4.77
2018-06-30T20:35:17.788Z,5.30
2018-06-30T20:37:45.966Z,5.00
2018-06-30T20:40:14.135Z,4.77
2018-06-30T20:42:42.309Z,4.90
2018-06-30T20:45:10.551Z,4.97
2018-06-30T20:47:39.012Z,5.43
2018-06-30T20:50:07.605Z,5.37
2018-06-30T20:52:36.122Z,4.90
2018-06-30T20:55:04.716Z,5.30
2018-06-30T20:57:33.292Z,5.30
2018-06-30T21:00:01.850Z,5.20
2018-06-30T21:02:30.382Z,5.17
2018-06-30T21:04:58.902Z,5.23
2018-06-30T21:07:27.460Z,5.00
2018-06-30T21:09:55.998Z,4.80
2018-06-30T21:12:24.512Z,5.30
2018-06-30T21:14:53.049Z,5.23
2018-06-30T21:17:21.618Z,5.40
2018-06-30T21:19:49.776Z,5.17
2018-06-30T21:22:18.355Z,4.63
2018-06-30T21:24:46.859Z,4.50
2018-06-30T21:27:15.381Z,4.80
2018-06-30T21:29:43.908Z,4.77
2018-06-30T21:32:12.431Z,4.77
2018-06-30T21:34:40.590Z,4.90
2018-06-30T21:37:09.121Z,4.73
2018-06-30T21:39:37.623Z,4.40
2018-06-30T21:42:06.155Z,4.60
2018-06-30T21:44:34.691Z,4.80
2018-06-30T21:47:03.232Z,4.83
2018-06-30T21:49:31.776Z,4.80
2018-06-30T21:52:00.312Z,4.97
2018-06-30T21:54:28.469Z,5.00
2018-06-30T21:56:57.063Z,5.27
2018-06-30T21:59:25.563Z,4.80
2018-06-30T22:01:57.024Z,5.17
2018-06-30T22:04:25.629Z,5.47
2018-06-30T22:06:54.186Z,4.70
2018-06-30T22:09:22.700Z,5.30
2018-06-30T22:11:51.375Z,4.80
2018-06-30T22:14:19.544Z,4.80
2018-06-30T22:16:48.045Z,4.27
2018-06-30T22:19:16.496Z,4.67
2018-06-30T22:21:45.028Z,4.57
2018-06-30T22:24:13.612Z,4.90
2018-06-30T22:26:42.133Z,5.00
2018-06-30T22:29:10.669Z,4.97
2018-06-30T22:31:38.827Z,4.80
2018-06-30T22:34:07.440Z,5.83
2018-06-30T22:36:35.635Z,5.50
2018-06-30T22:39:06.074Z,4.90
2018-06-30T22:41:34.596Z,4.77
2018-06-30T22:44:03.224Z,5.27
2018-06-30T22:46:31.381Z,5.53
2018-06-30T22:48:59.908Z,5.00
2018-06-30T22:51:28.430Z,5.30
2018-06-30T22:53:56.946Z,4.90
2018-06-30T22:56:25.485Z,4.93
2018-06-30T22:58:54.112Z,5.37
2018-06-30T23:01:22.637Z,5.30
2018-06-30T23:03:50.872Z,5.10
2018-06-30T23:06:19.379Z,4.70
2018-06-30T23:08:54.425Z,4.27
2018-06-30T23:11:24.136Z,4.50
2018-06-30T23:13:52.414Z,5.03
2018-06-30T23:16:20.960Z,4.63
2018-06-30T23:18:49.484Z,5.13
2018-06-30T23:21:17.981Z,5.20
2018-06-30T23:23:46.136Z,5.87
2018-06-30T23:26:14.649Z,4.93
2018-06-30T23:28:43.156Z,4.80
2018-06-30T23:31:11.667Z,5.17
2018-06-30T23:33:40.207Z,4.87
2018-06-30T23:36:08.376Z,4.97
2018-06-30T23:38:36.919Z,4.83
2018-06-30T23:41:05.431Z,4.67
2018-06-30T23:43:33.921Z,4.40
2018-06-30T23:46:02.434Z,4.43
2018-06-30T23:48:30.927Z,4.80
2018-06-30T23:50:59.435Z,4.43
2018-06-30T23:53:27.971Z,5.00
2018-06-30T23:55:56.456Z,4.70
2018-06-30T23:58:24.939Z,4.37
